createdAt,value
2017-12-12T00:00:48.977Z,85.46
2017-12-12T00:01:49.036Z,85.83
2017-12-12T00:02:49.104Z,86.04
2017-12-12T00:03:49.102Z,85.24
2017-12-12T00:04:49.033Z,85.38
2017-12-12T00:05:48.996Z,85.43
2017-12-12T00:06:49.037Z,85.69
2017-12-12T00:07:49.111Z,84.97
2017-12-12T00:08:49.044Z,85.13
2017-12-12T00:09:49.043Z,84.84
2017-12-12T00:10:49.108Z,84.44
2017-12-12T00:11:49.040Z,84.81
2017-12-12T00:12:49.042Z,84.92
2017-12-12T00:13:49.107Z,84.89
2017-12-12T00:14:49.041Z,85.35
2017-12-12T00:15:49.052Z,85.21
2017-12-12T00:16:49.001Z,85.19
2017-12-12T00:17:49.055Z,85.35
2017-12-12T00:18:49.009Z,85.03
2017-12-12T00:19:48.960Z,84.89
2017-12-12T00:20:49.058Z,84.81
2017-12-12T00:21:49.021Z,85.21
2017-12-12T00:22:49.055Z,85.40
2017-12-12T00:23:48.967Z,84.76
2017-12-12T00:24:49.012Z,85.03
2017-12-12T00:25:49.049Z,84.26
2017-12-12T00:26:49.124Z,84.07
2017-12-12T00:27:49.046Z,84.39
2017-12-12T00:28:49.118Z,84.44
2017-12-12T00:29:49.093Z,84.92
2017-12-12T00:30:49.120Z,84.84
2017-12-12T00:31:49.118Z,84.97
2017-12-12T00:32:49.052Z,85.16
2017-12-12T00:33:49.000Z,85.38
2017-12-12T00:34:49.120Z,85.61
2017-12-12T00:35:49.056Z,85.58
2017-12-12T00:36:49.122Z,85.88
2017-12-12T00:37:49.057Z,86.07
2017-12-12T00:38:49.122Z,85.48
2017-12-12T00:39:49.124Z,85.99
2017-12-12T00:40:49.126Z,86.07
2017-12-12T00:41:49.057Z,85.75
2017-12-12T00:42:49.129Z,85.32
2017-12-12T00:43:49.055Z,85.69
2017-12-12T00:44:49.056Z,85.24
2017-12-12T00:45:49.125Z,85.03
2017-12-12T00:46:49.053Z,84.95
2017-12-12T00:47:49.133Z,85.11
2017-12-12T00:48:49.132Z,85.00
2017-12-12T00:49:49.073Z,84.92
2017-12-12T00:50:49.020Z,85.32
2017-12-12T00:51:49.134Z,85.50
2017-12-12T00:52:49.068Z,85.80
2017-12-12T00:53:49.135Z,85.88
2017-12-12T00:54:49.132Z,86.63
2017-12-12T00:55:49.066Z,86.81
2017-12-12T00:56:49.066Z,87.18
2017-12-12T00:57:49.135Z,87.59
2017-12-12T00:58:49.144Z,87.69
2017-12-12T00:59:49.135Z,87.24
2017-12-12T01:00:49.159Z,87.51
2017-12-12T01:01:49.138Z,87.72
2017-12-12T01:02:49.072Z,87.59
2017-12-12T01:03:49.147Z,86.91
2017-12-12T01:04:49.073Z,87.05
2017-12-12T01:05:49.085Z,87.59
2017-12-12T01:06:48.993Z,87.56
2017-12-12T01:07:49.094Z,87.53
2017-12-12T01:08:49.015Z,87.43
2017-12-12T01:09:49.091Z,87.69
2017-12-12T01:10:48.997Z,87.96
2017-12-12T01:11:49.088Z,87.77
2017-12-12T01:12:48.992Z,87.24
2017-12-12T01:13:49.045Z,87.43
2017-12-12T01:14:48.993Z,87.82
2017-12-12T01:15:49.082Z,88.17
2017-12-12T01:16:49.148Z,87.88
2017-12-12T01:17:49.078Z,87.82
2017-12-12T01:18:49.148Z,87.02
2017-12-12T01:19:49.082Z,87.32
2017-12-12T01:20:49.170Z,87.37
2017-12-12T01:21:49.085Z,87.53
2017-12-12T01:22:49.150Z,87.34
2017-12-12T01:23:49.167Z,87.64
2017-12-12T01:24:49.089Z,87.64
2017-12-12T01:25:49.176Z,88.04
2017-12-12T01:26:49.094Z,88.12
2017-12-12T01:27:49.083Z,88.76
2017-12-12T01:28:49.092Z,88.68
2017-12-12T01:29:49.186Z,88.95
2017-12-12T01:30:49.153Z,89.29
2017-12-12T01:31:49.094Z,89.80
2017-12-12T01:32:49.155Z,89.80
2017-12-12T01:33:49.090Z,89.72
2017-12-12T01:34:49.045Z,89.86
2017-12-12T01:35:49.160Z,89.54
2017-12-12T01:36:49.098Z,90.07
2017-12-12T01:37:49.161Z,90.42
2017-12-12T01:38:49.098Z,90.63
2017-12-12T01:39:49.124Z,90.61
2017-12-12T01:40:49.163Z,90.85
2017-12-12T01:41:49.095Z,91.25
2017-12-12T01:42:49.169Z,91.65
2017-12-12T01:43:49.165Z,91.95
2017-12-12T01:44:49.099Z,91.86
2017-12-12T01:45:49.162Z,91.44
2017-12-12T01:46:49.106Z,91.11
2017-12-12T01:47:49.103Z,90.82
2017-12-12T01:48:49.098Z,90.39
2017-12-12T01:49:49.183Z,90.07
2017-12-12T01:50:49.091Z,90.07
2017-12-12T01:51:49.168Z,90.23
2017-12-12T01:52:49.101Z,90.34
2017-12-12T01:53:49.167Z,90.07
2017-12-12T01:54:49.102Z,89.75
2017-12-12T01:55:49.167Z,89.70
2017-12-12T01:56:49.117Z,90.20
2017-12-12T01:57:49.075Z,90.15
2017-12-12T01:58:49.075Z,90.42
2017-12-12T01:59:49.078Z,90.28
2017-12-12T02:00:49.102Z,90.39
2017-12-12T02:01:49.159Z,90.85
2017-12-12T02:02:49.176Z,90.93
2017-12-12T02:03:49.077Z,90.98
2017-12-12T02:04:49.062Z,90.80
2017-12-12T02:05:49.109Z,90.85
2017-12-12T02:06:49.180Z,91.01
2017-12-12T02:07:49.107Z,90.96
2017-12-12T02:08:49.178Z,90.34
2017-12-12T02:09:49.116Z,90.05
2017-12-12T02:10:49.176Z,90.28
2017-12-12T02:11:49.110Z,90.47
2017-12-12T02:12:49.181Z,89.59
2017-12-12T02:13:49.113Z,89.00
2017-12-12T02:14:49.156Z,89.83
2017-12-12T02:15:49.132Z,89.70
2017-12-12T02:16:49.149Z,89.83
2017-12-12T02:17:49.064Z,89.67
2017-12-12T02:18:49.129Z,89.45
2017-12-12T02:19:49.063Z,89.80
2017-12-12T02:20:49.087Z,89.70
2017-12-12T02:21:49.172Z,89.72
2017-12-12T02:22:49.088Z,89.91
2017-12-12T02:23:49.134Z,89.67
2017-12-12T02:24:49.184Z,89.67
2017-12-12T02:25:49.190Z,89.06
2017-12-12T02:26:49.124Z,88.57
2017-12-12T02:27:49.187Z,88.89
2017-12-12T02:28:49.114Z,88.60
2017-12-12T02:29:49.189Z,88.87
2017-12-12T02:30:49.123Z,88.71
2017-12-12T02:31:49.193Z,88.71
2017-12-12T02:32:49.121Z,89.03
2017-12-12T02:33:49.193Z,88.84
2017-12-12T02:34:49.130Z,88.84
2017-12-12T02:35:49.215Z,88.54
2017-12-12T02:36:49.196Z,88.84
2017-12-12T02:37:49.133Z,89.19
2017-12-12T02:38:49.131Z,89.70
2017-12-12T02:39:49.132Z,90.39
2017-12-12T02:40:49.197Z,90.74
2017-12-12T02:41:49.199Z,91.03
2017-12-12T02:42:49.197Z,91.65
2017-12-12T02:43:49.198Z,91.63
2017-12-12T02:44:49.136Z,91.92
2017-12-12T02:45:49.198Z,91.82
2017-12-12T02:46:49.137Z,92.05
2017-12-12T02:47:49.198Z,91.92
2017-12-12T02:48:49.130Z,91.92
2017-12-12T02:49:49.211Z,91.84
2017-12-12T02:50:49.139Z,92.03
2017-12-12T02:51:49.203Z,91.65
2017-12-12T02:52:49.140Z,91.79
2017-12-12T02:53:49.206Z,92.01
2017-12-12T02:54:49.140Z,92.19
2017-12-12T02:55:49.061Z,92.62
2017-12-12T02:56:49.063Z,92.62
2017-12-12T02:57:49.143Z,92.59
2017-12-12T02:58:49.168Z,92.84
2017-12-12T02:59:49.134Z,92.49
2017-12-12T03:00:49.101Z,92.16
2017-12-12T03:01:49.076Z,92.40
2017-12-12T03:02:49.140Z,92.57
2017-12-12T03:03:49.199Z,92.86
2017-12-12T03:04:49.199Z,93.02
2017-12-12T03:05:49.202Z,92.76
2017-12-12T03:06:49.207Z,92.65
2017-12-12T03:07:49.168Z,92.57
2017-12-12T03:08:49.149Z,92.81
2017-12-12T03:09:49.208Z,92.84
2017-12-12T03:10:49.207Z,92.54
2017-12-12T03:11:49.171Z,93.05
2017-12-12T03:12:49.208Z,92.97
2017-12-12T03:13:49.215Z,93.40
2017-12-12T03:14:49.122Z,93.56
2017-12-12T03:15:49.107Z,93.64
2017-12-12T03:16:49.086Z,93.91
2017-12-12T03:17:49.210Z,93.72
2017-12-12T03:18:49.171Z,93.83
2017-12-12T03:19:49.204Z,93.16
2017-12-12T03:20:49.206Z,91.11
2017-12-12T03:21:49.107Z,91.36
2017-12-12T03:22:49.210Z,92.30
2017-12-12T03:23:49.123Z,93.85
2017-12-12T03:24:49.210Z,93.91
2017-12-12T03:25:49.197Z,94.23
2017-12-12T03:26:49.112Z,94.61
2017-12-12T03:27:49.093Z,94.42
2017-12-12T03:28:49.175Z,94.56
2017-12-12T03:29:49.182Z,95.45
2017-12-12T03:30:49.183Z,95.69
2017-12-12T03:31:49.094Z,96.02
2017-12-12T03:32:49.180Z,95.75
2017-12-12T03:33:49.189Z,95.75
2017-12-12T03:34:49.089Z,96.07
2017-12-12T03:35:49.095Z,95.66
2017-12-12T03:36:49.169Z,95.34
2017-12-12T03:37:49.231Z,94.83
2017-12-12T03:38:49.230Z,93.56
2017-12-12T03:39:49.162Z,94.29
2017-12-12T03:40:49.119Z,94.42
2017-12-12T03:41:49.167Z,94.42
2017-12-12T03:42:49.171Z,94.69
2017-12-12T03:43:49.168Z,94.45
2017-12-12T03:44:49.125Z,93.89
2017-12-12T03:45:49.165Z,94.21
2017-12-12T03:46:49.116Z,93.94
2017-12-12T03:47:49.175Z,93.75
2017-12-12T03:48:49.239Z,94.12
2017-12-12T03:49:49.176Z,93.37
2017-12-12T03:50:49.241Z,93.75
2017-12-12T03:51:49.168Z,93.94
2017-12-12T03:52:49.239Z,94.04
2017-12-12T03:53:49.177Z,94.37
2017-12-12T03:54:49.240Z,94.37
2017-12-12T03:55:49.176Z,93.83
2017-12-12T03:56:49.245Z,93.70
2017-12-12T03:57:49.243Z,94.34
2017-12-12T03:58:49.171Z,94.72
2017-12-12T03:59:49.249Z,94.72
2017-12-12T04:00:49.243Z,94.56
2017-12-12T04:01:49.252Z,94.48
2017-12-12T04:02:49.184Z,93.26
2017-12-12T04:03:49.244Z,93.13
2017-12-12T04:04:49.180Z,93.16
2017-12-12T04:05:49.035Z,93.59
2017-12-12T04:06:49.023Z,93.89
2017-12-12T04:07:49.020Z,93.89
2017-12-12T04:08:49.020Z,94.02
2017-12-12T04:09:49.016Z,94.31
2017-12-12T04:10:49.018Z,94.59
2017-12-12T04:11:49.023Z,94.88
2017-12-12T04:12:49.019Z,95.20
2017-12-12T04:13:49.020Z,95.23
2017-12-12T04:14:49.020Z,95.04
2017-12-12T04:15:49.237Z,94.69
2017-12-12T04:16:49.165Z,94.50
2017-12-12T04:17:49.138Z,94.77
2017-12-12T04:18:49.177Z,95.12
2017-12-12T04:19:49.184Z,94.75
2017-12-12T04:20:49.207Z,94.88
2017-12-12T04:21:49.205Z,95.26
2017-12-12T04:22:49.121Z,95.50
2017-12-12T04:23:49.257Z,96.07
2017-12-12T04:24:49.257Z,96.20
2017-12-12T04:25:49.123Z,96.36
2017-12-12T04:26:49.210Z,96.72
2017-12-12T04:27:49.223Z,96.93
2017-12-12T04:28:49.236Z,96.83
2017-12-12T04:29:49.156Z,96.34
2017-12-12T04:30:49.144Z,95.94
2017-12-12T04:31:49.125Z,95.28
2017-12-12T04:32:49.201Z,95.12
2017-12-12T04:33:49.190Z,95.07
2017-12-12T04:34:49.224Z,94.67
2017-12-12T04:35:49.122Z,94.21
2017-12-12T04:36:49.121Z,94.10
2017-12-12T04:37:49.192Z,94.67
2017-12-12T04:38:49.249Z,94.99
2017-12-12T04:39:49.126Z,94.56
2017-12-12T04:40:49.229Z,94.77
2017-12-12T04:41:49.167Z,94.75
2017-12-12T04:42:49.178Z,94.56
2017-12-12T04:43:49.251Z,94.67
2017-12-12T04:44:49.249Z,94.29
2017-12-12T04:45:49.150Z,94.18
2017-12-12T04:46:49.227Z,94.31
2017-12-12T04:47:49.155Z,94.10
2017-12-12T04:48:49.272Z,93.89
2017-12-12T04:49:49.228Z,93.72
2017-12-12T04:50:49.266Z,93.64
2017-12-12T04:51:49.269Z,93.94
2017-12-12T04:52:49.272Z,93.89
2017-12-12T04:53:49.143Z,93.85
2017-12-12T04:54:49.244Z,94.04
2017-12-12T04:55:49.160Z,93.35
2017-12-12T04:56:49.263Z,93.10
2017-12-12T04:57:49.272Z,93.67
2017-12-12T04:58:49.244Z,94.02
2017-12-12T04:59:49.232Z,93.59
2017-12-12T05:00:49.233Z,93.40
2017-12-12T05:01:49.210Z,93.37
2017-12-12T05:02:49.230Z,93.10
2017-12-12T05:03:49.231Z,93.37
2017-12-12T05:04:49.210Z,93.78
2017-12-12T05:05:49.287Z,93.91
2017-12-12T05:06:49.283Z,93.81
2017-12-12T05:07:49.216Z,93.67
2017-12-12T05:08:49.282Z,94.04
2017-12-12T05:09:49.285Z,94.18
2017-12-12T05:10:49.218Z,94.40
2017-12-12T05:11:49.213Z,94.29
2017-12-12T05:12:49.178Z,94.50
2017-12-12T05:13:49.243Z,94.37
2017-12-12T05:14:49.288Z,94.83
2017-12-12T05:15:49.218Z,94.88
2017-12-12T05:16:49.291Z,94.96
2017-12-12T05:17:49.231Z,95.31
2017-12-12T05:18:49.295Z,95.39
2017-12-12T05:19:49.219Z,95.47
2017-12-12T05:20:49.226Z,95.64
2017-12-12T05:21:49.298Z,95.80
2017-12-12T05:22:49.226Z,95.88
2017-12-12T05:23:49.295Z,96.04
2017-12-12T05:24:49.221Z,96.17
2017-12-12T05:25:49.298Z,96.23
2017-12-12T05:26:49.249Z,96.42
2017-12-12T05:27:49.298Z,96.69
2017-12-12T05:28:49.230Z,96.42
2017-12-12T05:29:49.297Z,96.31
2017-12-12T05:30:49.231Z,96.20
2017-12-12T05:31:49.298Z,96.04
2017-12-12T05:32:49.238Z,95.88
2017-12-12T05:33:49.230Z,95.98
2017-12-12T05:34:49.303Z,96.04
2017-12-12T05:35:49.239Z,96.31
2017-12-12T05:36:49.301Z,96.45
2017-12-12T05:37:49.330Z,96.55
2017-12-12T05:38:49.240Z,96.28
2017-12-12T05:39:49.244Z,96.13
2017-12-12T05:40:49.303Z,96.26
2017-12-12T05:41:49.305Z,96.28
2017-12-12T05:42:49.244Z,96.50
2017-12-12T05:43:49.236Z,96.66
2017-12-12T05:44:49.305Z,97.02
2017-12-12T05:45:49.233Z,97.21
2017-12-12T05:46:49.197Z,97.31
2017-12-12T05:47:49.266Z,97.36
2017-12-12T05:48:49.198Z,97.50
2017-12-12T05:49:49.237Z,97.53
2017-12-12T05:50:49.202Z,97.61
2017-12-12T05:51:49.203Z,97.85
2017-12-12T05:52:49.178Z,98.15
2017-12-12T05:53:49.340Z,98.29
2017-12-12T05:54:49.271Z,98.29
2017-12-12T05:55:49.239Z,98.42
2017-12-12T05:56:49.245Z,98.61
2017-12-12T05:57:49.319Z,98.72
2017-12-12T05:58:49.249Z,98.85
2017-12-12T05:59:49.316Z,98.96
2017-12-12T06:00:49.249Z,99.18
2017-12-12T06:01:49.318Z,99.32
2017-12-12T06:02:49.268Z,99.48
2017-12-12T06:03:49.250Z,99.51
2017-12-12T06:04:49.256Z,99.40
2017-12-12T06:05:49.255Z,99.40
2017-12-12T06:06:49.175Z,99.40
2017-12-12T06:07:49.330Z,99.48
2017-12-12T06:08:49.175Z,99.48
2017-12-12T06:09:49.266Z,99.26
2017-12-12T06:10:49.273Z,99.13
2017-12-12T06:11:49.255Z,98.91
2017-12-12T06:12:49.391Z,98.77
2017-12-12T06:13:49.178Z,98.75
2017-12-12T06:14:49.262Z,98.66
2017-12-12T06:15:49.218Z,98.69
2017-12-12T06:16:49.254Z,98.69
2017-12-12T06:17:49.276Z,98.77
2017-12-12T06:18:49.215Z,98.85
2017-12-12T06:19:49.311Z,98.88
2017-12-12T06:20:49.312Z,98.75
2017-12-12T06:21:49.214Z,98.64
2017-12-12T06:22:49.265Z,98.61
2017-12-12T06:23:49.307Z,98.66
2017-12-12T06:24:49.217Z,98.55
2017-12-12T06:25:49.310Z,98.66
2017-12-12T06:26:49.335Z,98.72
2017-12-12T06:27:49.267Z,98.66
2017-12-12T06:28:49.332Z,98.66
2017-12-12T06:29:49.294Z,98.77
2017-12-12T06:30:49.335Z,98.66
2017-12-12T06:31:49.333Z,98.64
2017-12-12T06:32:49.265Z,98.66
2017-12-12T06:33:49.339Z,98.53
2017-12-12T06:34:49.293Z,98.53
2017-12-12T06:35:49.270Z,98.75
2017-12-12T06:36:49.277Z,98.85
2017-12-12T06:37:49.339Z,98.64
2017-12-12T06:38:49.305Z,98.66
2017-12-12T06:39:49.340Z,98.61
2017-12-12T06:40:49.332Z,98.40
2017-12-12T06:41:49.275Z,98.31
2017-12-12T06:42:49.347Z,98.26
2017-12-12T06:43:49.345Z,98.26
2017-12-12T06:44:49.272Z,98.21
2017-12-12T06:45:49.346Z,98.04
2017-12-12T06:46:49.277Z,97.99
2017-12-12T06:47:49.346Z,98.02
2017-12-12T06:48:49.277Z,97.61
2017-12-12T06:49:49.345Z,97.34
2017-12-12T06:50:49.278Z,97.45
2017-12-12T06:51:49.346Z,97.26
2017-12-12T06:52:49.277Z,97.12
2017-12-12T06:53:49.348Z,97.39
2017-12-12T06:54:49.274Z,97.21
2017-12-12T06:55:49.350Z,97.21
2017-12-12T06:56:49.280Z,97.28
2017-12-12T06:57:49.350Z,97.34
2017-12-12T06:58:49.276Z,97.28
2017-12-12T06:59:49.356Z,97.39
2017-12-12T07:00:49.312Z,97.47
2017-12-12T07:01:49.242Z,97.53
2017-12-12T07:02:49.294Z,97.47
2017-12-12T07:03:49.353Z,97.61
2017-12-12T07:04:49.285Z,97.83
2017-12-12T07:05:49.285Z,97.93
2017-12-12T07:06:49.324Z,98.15
2017-12-12T07:07:49.261Z,98.31
2017-12-12T07:08:49.233Z,98.42
2017-12-12T07:09:49.219Z,98.40
2017-12-12T07:10:49.346Z,98.37
2017-12-12T07:11:49.309Z,98.45
2017-12-12T07:12:49.346Z,98.64
2017-12-12T07:13:49.242Z,98.48
2017-12-12T07:14:49.344Z,98.45
2017-12-12T07:15:49.313Z,98.53
2017-12-12T07:16:49.363Z,98.61
2017-12-12T07:17:49.289Z,98.85
2017-12-12T07:18:49.361Z,98.83
2017-12-12T07:19:49.365Z,98.83
2017-12-12T07:20:49.361Z,98.88
2017-12-12T07:21:49.380Z,98.91
2017-12-12T07:22:49.296Z,99.07
2017-12-12T07:23:49.367Z,99.26
2017-12-12T07:24:49.291Z,99.37
2017-12-12T07:25:49.256Z,99.21
2017-12-12T07:26:49.269Z,99.02
2017-12-12T07:27:49.243Z,98.96
2017-12-12T07:28:49.365Z,99.04
2017-12-12T07:29:49.372Z,99.07
2017-12-12T07:30:49.358Z,99.07
2017-12-12T07:31:49.371Z,99.02
2017-12-12T07:32:49.356Z,98.94
2017-12-12T07:33:49.335Z,98.94
2017-12-12T07:34:49.320Z,98.80
2017-12-12T07:35:49.356Z,98.99
2017-12-12T07:36:49.237Z,98.85
2017-12-12T07:37:49.321Z,98.66
2017-12-12T07:38:49.329Z,98.53
2017-12-12T07:39:49.354Z,98.59
2017-12-12T07:40:49.263Z,98.12
2017-12-12T07:41:49.336Z,98.23
2017-12-12T07:42:49.309Z,98.45
2017-12-12T07:43:49.267Z,98.45
2017-12-12T07:44:49.253Z,98.34
2017-12-12T07:45:49.281Z,98.53
2017-12-12T07:46:49.393Z,98.66
2017-12-12T07:47:49.379Z,98.83
2017-12-12T07:48:49.381Z,98.40
2017-12-12T07:49:49.313Z,97.88
2017-12-12T07:50:49.383Z,97.42
2017-12-12T07:51:49.319Z,97.15
2017-12-12T07:52:49.381Z,96.55
2017-12-12T07:53:49.387Z,96.42
2017-12-12T07:54:49.335Z,96.26
2017-12-12T07:55:49.386Z,96.39
2017-12-12T07:56:49.281Z,96.39
2017-12-12T07:57:49.337Z,96.61
2017-12-12T07:58:49.333Z,96.83
2017-12-12T07:59:49.247Z,96.85
2017-12-12T08:00:49.274Z,96.96
2017-12-12T08:01:49.344Z,96.72
2017-12-12T08:02:49.354Z,96.61
2017-12-12T08:03:49.244Z,96.66
2017-12-12T08:04:49.283Z,96.02
2017-12-12T08:05:49.341Z,95.12
2017-12-12T08:06:49.377Z,94.91
2017-12-12T08:07:49.389Z,94.80
2017-12-12T08:08:49.280Z,94.93
2017-12-12T08:09:49.252Z,94.96
2017-12-12T08:10:49.317Z,95.10
2017-12-12T08:11:49.301Z,94.69
2017-12-12T08:12:49.372Z,94.40
2017-12-12T08:13:49.338Z,94.21
2017-12-12T08:14:49.300Z,94.40
2017-12-12T08:15:49.283Z,94.75
2017-12-12T08:16:49.274Z,94.50
2017-12-12T08:17:49.344Z,94.72
2017-12-12T08:18:49.386Z,94.86
2017-12-12T08:19:49.326Z,94.69
2017-12-12T08:20:49.300Z,94.59
2017-12-12T08:21:49.353Z,94.59
2017-12-12T08:22:49.264Z,94.48
2017-12-12T08:23:49.389Z,93.85
2017-12-12T08:24:49.305Z,93.67
2017-12-12T08:25:49.402Z,94.02
2017-12-12T08:26:49.341Z,93.56
2017-12-12T08:27:49.405Z,92.99
2017-12-12T08:28:49.332Z,92.84
2017-12-12T08:29:49.435Z,93.26
2017-12-12T08:30:49.406Z,93.32
2017-12-12T08:31:49.330Z,93.56
2017-12-12T08:32:49.341Z,93.89
2017-12-12T08:33:49.405Z,93.91
2017-12-12T08:34:49.407Z,93.24
2017-12-12T08:35:49.337Z,93.43
2017-12-12T08:36:49.375Z,93.02
2017-12-12T08:37:49.405Z,92.59
2017-12-12T08:38:49.410Z,92.89
2017-12-12T08:39:49.358Z,93.32
2017-12-12T08:40:49.337Z,93.85
2017-12-12T08:41:49.407Z,94.15
2017-12-12T08:42:49.339Z,93.99
2017-12-12T08:43:49.291Z,94.26
2017-12-12T08:44:49.363Z,94.04
2017-12-12T08:45:49.347Z,93.75
2017-12-12T08:46:49.317Z,93.43
2017-12-12T08:47:49.358Z,93.32
2017-12-12T08:48:49.399Z,93.10
2017-12-12T08:49:49.292Z,93.16
2017-12-12T08:50:49.403Z,93.59
2017-12-12T08:51:49.320Z,93.81
2017-12-12T08:52:49.294Z,93.85
2017-12-12T08:53:49.351Z,93.91
2017-12-12T08:54:49.320Z,93.72
2017-12-12T08:55:49.360Z,93.64
2017-12-12T08:56:49.427Z,93.48
2017-12-12T08:57:49.347Z,93.32
2017-12-12T08:58:49.417Z,93.32
2017-12-12T08:59:49.420Z,93.48
2017-12-12T09:00:49.390Z,93.18
2017-12-12T09:01:49.302Z,93.26
2017-12-12T09:02:49.425Z,92.76
2017-12-12T09:03:49.371Z,92.54
2017-12-12T09:04:49.331Z,92.38
2017-12-12T09:05:49.327Z,92.32
2017-12-12T09:06:49.437Z,92.05
2017-12-12T09:07:49.356Z,92.05
2017-12-12T09:08:49.432Z,92.22
2017-12-12T09:09:49.363Z,91.92
2017-12-12T09:10:49.430Z,91.86
2017-12-12T09:11:49.427Z,92.30
2017-12-12T09:12:49.364Z,92.01
2017-12-12T09:13:49.432Z,92.43
2017-12-12T09:14:49.359Z,92.70
2017-12-12T09:15:49.433Z,92.65
2017-12-12T09:16:49.322Z,92.68
2017-12-12T09:17:49.325Z,93.08
2017-12-12T09:18:49.330Z,93.40
2017-12-12T09:19:49.325Z,93.24
2017-12-12T09:20:49.284Z,93.62
2017-12-12T09:21:49.378Z,94.04
2017-12-12T09:22:49.385Z,94.26
2017-12-12T09:23:49.377Z,94.07
2017-12-12T09:24:49.296Z,93.70
2017-12-12T09:25:49.331Z,93.56
2017-12-12T09:26:49.300Z,94.26
2017-12-12T09:27:49.450Z,93.99
2017-12-12T09:28:49.307Z,94.15
2017-12-12T09:29:49.306Z,94.37
2017-12-12T09:30:49.392Z,94.42
2017-12-12T09:31:49.330Z,94.45
2017-12-12T09:32:49.368Z,94.10
2017-12-12T09:33:49.390Z,94.04
2017-12-12T09:34:49.332Z,94.15
2017-12-12T09:35:49.395Z,94.23
2017-12-12T09:36:49.447Z,94.45
2017-12-12T09:37:49.372Z,94.77
2017-12-12T09:38:49.534Z,94.56
2017-12-12T09:39:49.447Z,93.89
2017-12-12T09:40:49.373Z,94.29
2017-12-12T09:41:49.448Z,94.64
2017-12-12T09:42:49.377Z,94.69
2017-12-12T09:43:49.452Z,93.89
2017-12-12T09:44:49.376Z,93.64
2017-12-12T09:45:49.447Z,93.48
2017-12-12T09:46:49.449Z,93.89
2017-12-12T09:47:49.372Z,93.89
2017-12-12T09:48:49.454Z,94.07
2017-12-12T09:49:49.384Z,93.51
2017-12-12T09:50:49.456Z,93.54
2017-12-12T09:51:49.381Z,93.75
2017-12-12T09:52:49.454Z,93.72
2017-12-12T09:53:49.384Z,94.12
2017-12-12T09:54:49.455Z,94.45
2017-12-12T09:55:49.392Z,94.42
2017-12-12T09:56:49.457Z,94.59
2017-12-12T09:57:49.409Z,94.50
2017-12-12T09:58:49.459Z,94.69
2017-12-12T09:59:49.457Z,95.07
2017-12-12T10:00:49.389Z,95.10
2017-12-12T10:01:49.458Z,95.26
2017-12-12T10:02:49.388Z,95.26
2017-12-12T10:03:49.459Z,94.80
2017-12-12T10:04:49.388Z,95.04
2017-12-12T10:05:49.466Z,95.56
2017-12-12T10:06:49.405Z,95.58
2017-12-12T10:07:49.426Z,95.66
2017-12-12T10:08:49.338Z,95.94
2017-12-12T10:09:49.405Z,96.42
2017-12-12T10:10:49.368Z,96.66
2017-12-12T10:11:49.386Z,96.26
2017-12-12T10:12:49.388Z,96.17
2017-12-12T10:13:49.408Z,96.13
2017-12-12T10:14:49.453Z,96.04
2017-12-12T10:15:49.365Z,95.77
2017-12-12T10:16:49.433Z,96.02
2017-12-12T10:17:49.470Z,96.20
2017-12-12T10:18:49.415Z,96.15
2017-12-12T10:19:49.457Z,96.53
2017-12-12T10:20:49.461Z,96.58
2017-12-12T10:21:49.453Z,96.50
2017-12-12T10:22:49.433Z,96.69
2017-12-12T10:23:49.351Z,96.83
2017-12-12T10:24:49.418Z,97.02
2017-12-12T10:25:49.396Z,97.28
2017-12-12T10:26:49.407Z,97.02
2017-12-12T10:27:49.473Z,97.07
2017-12-12T10:28:49.402Z,96.85
2017-12-12T10:29:49.477Z,96.96
2017-12-12T10:30:49.477Z,97.39
2017-12-12T10:31:49.478Z,97.69
2017-12-12T10:32:49.475Z,97.36
2017-12-12T10:33:49.404Z,97.21
2017-12-12T10:34:49.476Z,97.04
2017-12-12T10:35:49.480Z,97.04
2017-12-12T10:36:49.386Z,97.28
2017-12-12T10:37:49.347Z,97.64
2017-12-12T10:38:49.335Z,97.85
2017-12-12T10:39:49.375Z,97.83
2017-12-12T10:40:49.428Z,97.61
2017-12-12T10:41:49.387Z,97.47
2017-12-12T10:42:49.366Z,97.61
2017-12-12T10:43:49.449Z,97.93
2017-12-12T10:44:49.341Z,97.96
2017-12-12T10:45:49.462Z,97.93
2017-12-12T10:46:49.512Z,97.88
2017-12-12T10:47:49.414Z,97.69
2017-12-12T10:48:49.486Z,97.26
2017-12-12T10:49:49.413Z,97.21
2017-12-12T10:50:49.489Z,96.64
2017-12-12T10:51:49.419Z,95.61
2017-12-12T10:52:49.490Z,95.53
2017-12-12T10:53:49.423Z,95.85
2017-12-12T10:54:49.491Z,95.66
2017-12-12T10:55:49.415Z,95.66
2017-12-12T10:56:49.491Z,95.37
2017-12-12T10:57:49.416Z,95.45
2017-12-12T10:58:49.492Z,95.72
2017-12-12T10:59:49.495Z,96.09
2017-12-12T11:00:49.494Z,96.15
2017-12-12T11:01:49.418Z,96.04
2017-12-12T11:02:49.496Z,95.28
2017-12-12T11:03:49.423Z,94.96
2017-12-12T11:04:49.496Z,95.18
2017-12-12T11:05:49.421Z,94.72
2017-12-12T11:06:49.426Z,94.69
2017-12-12T11:07:49.429Z,94.69
2017-12-12T11:08:49.427Z,94.42
2017-12-12T11:09:49.506Z,94.10
2017-12-12T11:10:49.433Z,94.15
2017-12-12T11:11:49.426Z,94.42
2017-12-12T11:12:49.503Z,94.18
2017-12-12T11:13:49.501Z,94.10
2017-12-12T11:14:49.429Z,93.56
2017-12-12T11:15:49.504Z,93.45
2017-12-12T11:16:49.430Z,92.91
2017-12-12T11:17:49.390Z,91.86
2017-12-12T11:18:49.431Z,92.22
2017-12-12T11:19:49.430Z,91.79
2017-12-12T11:20:49.508Z,91.92
2017-12-12T11:21:49.436Z,92.11
2017-12-12T11:22:49.506Z,92.05
2017-12-12T11:23:49.438Z,91.33
2017-12-12T11:24:49.510Z,91.44
2017-12-12T11:25:49.511Z,92.65
2017-12-12T11:26:49.437Z,92.57
2017-12-12T11:27:49.431Z,92.30
2017-12-12T11:28:49.454Z,92.73
2017-12-12T11:29:49.498Z,92.08
2017-12-12T11:30:49.386Z,92.70
2017-12-12T11:31:49.413Z,93.24
2017-12-12T11:32:49.416Z,93.56
2017-12-12T11:33:49.392Z,93.51
2017-12-12T11:34:49.391Z,93.40
2017-12-12T11:35:49.414Z,92.99
2017-12-12T11:36:49.438Z,91.82
2017-12-12T11:37:49.477Z,92.49
2017-12-12T11:38:49.385Z,92.57
2017-12-12T11:39:49.492Z,92.30
2017-12-12T11:40:49.541Z,91.76
2017-12-12T11:41:49.496Z,91.90
2017-12-12T11:42:49.481Z,92.05
2017-12-12T11:43:49.480Z,92.32
2017-12-12T11:44:49.477Z,92.24
2017-12-12T11:45:49.388Z,92.05
2017-12-12T11:46:49.429Z,92.03
2017-12-12T11:47:49.404Z,91.44
2017-12-12T11:48:49.523Z,92.43
2017-12-12T11:49:49.525Z,91.79
2017-12-12T11:50:49.449Z,91.79
2017-12-12T11:51:49.524Z,91.73
2017-12-12T11:52:49.437Z,92.08
2017-12-12T11:53:49.450Z,91.65
2017-12-12T11:54:49.471Z,91.65
2017-12-12T11:55:49.528Z,91.84
2017-12-12T11:56:49.455Z,91.47
2017-12-12T11:57:49.459Z,91.97
2017-12-12T11:58:49.460Z,92.70
2017-12-12T11:59:49.530Z,91.41
2017-12-12T12:00:49.462Z,91.30
2017-12-12T12:01:49.531Z,91.25
2017-12-12T12:02:49.531Z,91.44
2017-12-12T12:03:49.454Z,91.73
2017-12-12T12:04:49.534Z,91.20
2017-12-12T12:05:49.462Z,91.38
2017-12-12T12:06:49.537Z,92.05
2017-12-12T12:07:49.492Z,92.01
2017-12-12T12:08:49.456Z,92.32
2017-12-12T12:09:49.426Z,92.16
2017-12-12T12:10:49.515Z,92.81
2017-12-12T12:11:49.497Z,92.95
2017-12-12T12:12:49.426Z,92.01
2017-12-12T12:13:49.487Z,91.95
2017-12-12T12:14:49.501Z,92.22
2017-12-12T12:15:49.502Z,92.43
2017-12-12T12:16:49.498Z,93.05
2017-12-12T12:17:49.541Z,92.65
2017-12-12T12:18:49.469Z,92.16
2017-12-12T12:19:49.543Z,91.52
2017-12-12T12:20:49.472Z,92.24
2017-12-12T12:21:49.475Z,92.54
2017-12-12T12:22:49.544Z,91.86
2017-12-12T12:23:49.475Z,91.92
2017-12-12T12:24:49.550Z,91.82
2017-12-12T12:25:49.478Z,92.27
2017-12-12T12:26:49.546Z,92.54
2017-12-12T12:27:49.492Z,90.96
2017-12-12T12:28:49.508Z,90.36
2017-12-12T12:29:49.413Z,90.66
2017-12-12T12:30:49.482Z,91.30
2017-12-12T12:31:49.509Z,91.55
2017-12-12T12:32:49.441Z,90.36
2017-12-12T12:33:49.509Z,90.36
2017-12-12T12:34:49.506Z,90.98
2017-12-12T12:35:49.511Z,91.38
2017-12-12T12:36:49.516Z,91.73
2017-12-12T12:37:49.555Z,92.46
2017-12-12T12:38:49.485Z,92.32
2017-12-12T12:39:49.607Z,91.90
2017-12-12T12:40:49.482Z,91.68
2017-12-12T12:41:49.556Z,92.03
2017-12-12T12:42:49.483Z,91.92
2017-12-12T12:43:49.559Z,92.11
2017-12-12T12:44:49.495Z,92.68
2017-12-12T12:45:49.558Z,92.32
2017-12-12T12:46:49.485Z,92.16
2017-12-12T12:47:49.445Z,92.30
2017-12-12T12:48:49.519Z,92.46
2017-12-12T12:49:49.409Z,92.89
2017-12-12T12:50:49.496Z,92.38
2017-12-12T12:51:49.508Z,91.95
2017-12-12T12:52:49.451Z,92.30